createdAt,value
2022-10-20T00:00:15.871Z,87.09
2022-10-20T00:01:15.857Z,86.82
2022-10-20T00:02:15.885Z,86.79
2022-10-20T00:03:15.850Z,87.24
2022-10-20T00:04:15.826Z,87.03
2022-10-20T00:05:15.820Z,87.13
2022-10-20T00:06:15.810Z,87.13
2022-10-20T00:07:15.800Z,87.13
2022-10-20T00:08:15.802Z,87.03
2022-10-20T00:09:15.783Z,87.03
2022-10-20T00:10:15.772Z,86.82
2022-10-20T00:11:15.762Z,87.85
2022-10-20T00:12:15.755Z,87.90
2022-10-20T00:13:15.759Z,87.79
2022-10-20T00:14:15.737Z,87.48
2022-10-20T00:15:15.729Z,87.99
2022-10-20T00:16:15.718Z,88.20
2022-10-20T00:17:15.708Z,88.51
2022-10-20T00:18:15.713Z,88.20
2022-10-20T00:19:15.691Z,87.90
2022-10-20T00:20:15.755Z,88.31
2022-10-20T00:21:15.677Z,88.31
2022-10-20T00:22:15.662Z,88.41
2022-10-20T00:23:15.672Z,88.82
2022-10-20T00:24:15.648Z,89.34
2022-10-20T00:25:15.641Z,88.65
2022-10-20T00:26:15.634Z,88.92
2022-10-20T00:27:15.623Z,88.96
2022-10-20T00:28:15.626Z,89.48
2022-10-20T00:30:16.598Z,89.28
2022-10-20T00:31:15.587Z,89.38
2022-10-20T00:32:15.577Z,88.65
2022-10-20T00:33:15.565Z,89.07
2022-10-20T00:34:15.568Z,89.17
2022-10-20T00:35:15.549Z,88.86
2022-10-20T00:36:15.542Z,89.28
2022-10-20T00:37:15.533Z,89.48
2022-10-20T00:38:15.558Z,89.17
2022-10-20T00:39:15.525Z,88.72
2022-10-20T00:40:15.506Z,89.07
2022-10-20T00:41:15.504Z,88.80
2022-10-20T00:42:15.488Z,89.58
2022-10-20T00:43:15.481Z,89.48
2022-10-20T00:44:15.485Z,89.73
2022-10-20T00:45:15.468Z,89.62
2022-10-20T00:46:15.458Z,89.69
2022-10-20T00:47:15.448Z,89.17
2022-10-20T00:48:15.438Z,89.73
2022-10-20T00:49:15.440Z,89.38
2022-10-20T00:50:15.422Z,89.17
2022-10-20T00:51:15.413Z,88.96
2022-10-20T00:52:15.402Z,89.07
2022-10-20T00:53:15.393Z,89.17
2022-10-20T00:54:15.395Z,89.52
2022-10-20T00:55:15.375Z,89.52
2022-10-20T00:56:15.369Z,89.83
2022-10-20T00:57:15.364Z,89.69
2022-10-20T00:58:15.429Z,89.42
2022-10-20T00:59:15.350Z,89.38
2022-10-20T01:00:15.362Z,89.62
2022-10-20T01:01:15.338Z,89.73
2022-10-20T01:02:15.315Z,89.48
2022-10-20T01:03:15.302Z,89.79
2022-10-20T01:04:15.305Z,89.79
2022-10-20T01:05:15.294Z,89.94
2022-10-20T01:07:15.268Z,90.04
2022-10-20T01:08:15.262Z,89.73
2022-10-20T01:09:15.263Z,89.52
2022-10-20T01:10:15.239Z,89.28
2022-10-20T01:11:15.230Z,89.32
2022-10-20T01:12:15.235Z,89.42
2022-10-20T01:13:15.226Z,89.42
2022-10-20T01:14:15.219Z,89.83
2022-10-20T01:15:15.259Z,89.83
2022-10-20T01:16:15.187Z,89.73
2022-10-20T01:17:15.183Z,89.83
2022-10-20T01:18:15.171Z,89.73
2022-10-20T01:19:15.200Z,89.58
2022-10-20T01:20:15.155Z,89.28
2022-10-20T01:21:15.139Z,89.48
2022-10-20T01:22:15.135Z,89.42
2022-10-20T01:23:15.128Z,89.62
2022-10-20T01:24:15.159Z,89.69
2022-10-20T01:25:15.117Z,89.38
2022-10-20T01:26:15.095Z,89.38
2022-10-20T01:27:15.091Z,89.79
2022-10-20T01:28:15.085Z,89.62
2022-10-20T01:29:15.085Z,89.73
2022-10-20T01:30:15.065Z,89.58
2022-10-20T01:31:15.057Z,89.22
2022-10-20T01:32:15.047Z,89.48
2022-10-20T01:33:15.072Z,89.83
2022-10-20T01:34:15.046Z,89.58
2022-10-20T01:35:15.041Z,89.11
2022-10-20T01:36:15.018Z,89.07
2022-10-20T01:37:28.164Z,89.28
2022-10-20T01:38:17.000Z,89.22
2022-10-20T01:39:14.998Z,88.65
2022-10-20T01:40:14.988Z,89.22
2022-10-20T01:41:14.969Z,88.76
2022-10-20T01:42:14.964Z,89.32
2022-10-20T01:43:14.962Z,89.17
2022-10-20T01:44:14.954Z,89.42
2022-10-20T01:45:14.935Z,88.86
2022-10-20T01:46:14.929Z,89.42
2022-10-20T01:47:14.923Z,89.11
2022-10-20T01:48:14.909Z,89.69
2022-10-20T01:49:14.914Z,89.48
2022-10-20T01:50:14.894Z,89.79
2022-10-20T01:51:14.886Z,89.11
2022-10-20T01:52:14.883Z,89.01
2022-10-20T01:53:14.874Z,89.58
2022-10-20T01:54:14.873Z,89.32
2022-10-20T01:55:14.852Z,89.69
2022-10-20T01:56:14.845Z,89.28
2022-10-20T01:57:14.833Z,89.69
2022-10-20T01:58:14.829Z,89.52
2022-10-20T01:59:14.828Z,89.52
2022-10-20T02:00:14.811Z,89.48
2022-10-20T02:01:14.883Z,89.42
2022-10-20T02:02:14.788Z,89.62
2022-10-20T02:03:14.779Z,89.69
2022-10-20T02:04:15.074Z,89.07
2022-10-20T02:05:14.765Z,89.01
2022-10-20T02:06:14.748Z,89.22
2022-10-20T02:07:14.743Z,88.80
2022-10-20T02:08:14.738Z,88.76
2022-10-20T02:09:14.746Z,89.01
2022-10-20T02:10:14.711Z,88.90
2022-10-20T02:11:14.714Z,89.62
2022-10-20T02:12:14.700Z,89.83
2022-10-20T02:13:14.692Z,89.83
2022-10-20T02:14:14.702Z,89.62
2022-10-20T02:15:14.673Z,89.83
2022-10-20T02:16:14.666Z,89.94
2022-10-20T02:17:14.654Z,90.25
2022-10-20T02:18:14.647Z,89.83
2022-10-20T02:19:14.649Z,90.14
2022-10-20T02:20:14.633Z,90.04
2022-10-20T02:21:14.621Z,90.25
2022-10-20T02:22:14.620Z,90.97
2022-10-20T02:23:14.613Z,90.35
2022-10-20T02:24:14.607Z,90.55
2022-10-20T02:25:14.591Z,91.17
2022-10-20T02:26:14.586Z,90.86
2022-10-20T02:27:14.578Z,90.66
2022-10-20T02:28:14.586Z,90.86
2022-10-20T02:29:14.565Z,90.86
2022-10-20T02:30:14.550Z,90.66
2022-10-20T02:31:14.539Z,90.55
2022-10-20T02:32:14.530Z,90.86
2022-10-20T02:33:14.554Z,90.55
2022-10-20T02:34:14.533Z,90.66
2022-10-20T02:35:14.526Z,90.76
2022-10-20T02:36:14.493Z,91.11
2022-10-20T02:37:14.498Z,90.86
2022-10-20T02:38:14.479Z,91.28
2022-10-20T02:39:14.480Z,91.42
2022-10-20T02:40:14.462Z,91.38
2022-10-20T02:41:14.455Z,91.11
2022-10-20T02:42:14.444Z,91.22
2022-10-20T02:43:14.437Z,91.83
2022-10-20T02:44:14.436Z,91.63
2022-10-20T02:45:14.416Z,91.73
2022-10-20T02:47:14.407Z,91.73
2022-10-20T02:48:14.407Z,92.46
2022-10-20T02:49:14.391Z,92.35
2022-10-20T02:50:14.372Z,92.46
2022-10-20T02:51:14.364Z,91.63
2022-10-20T02:52:14.359Z,91.79
2022-10-20T02:53:14.361Z,91.48
2022-10-20T02:54:14.341Z,91.17
2022-10-20T02:55:14.377Z,91.28
2022-10-20T02:56:14.327Z,91.07
2022-10-20T02:57:14.319Z,91.07
2022-10-20T02:58:14.326Z,90.66
2022-10-20T02:59:14.298Z,90.86
2022-10-20T03:00:14.286Z,90.39
2022-10-20T03:01:14.341Z,90.08
2022-10-20T03:02:14.276Z,90.19
2022-10-20T03:03:14.282Z,89.98
2022-10-20T03:04:14.281Z,90.70
2022-10-20T03:05:14.281Z,89.98
2022-10-20T03:06:14.235Z,90.08
2022-10-20T03:07:14.226Z,89.98
2022-10-20T03:08:14.213Z,89.98
2022-10-20T03:09:14.222Z,90.91
2022-10-20T03:10:14.201Z,90.80
2022-10-20T03:11:14.188Z,90.59
2022-10-20T03:12:14.178Z,90.80
2022-10-20T03:13:14.174Z,90.49
2022-10-20T03:14:14.175Z,90.39
2022-10-20T03:15:14.153Z,90.91
2022-10-20T03:16:14.146Z,91.11
2022-10-20T03:17:14.148Z,91.32
2022-10-20T03:18:14.127Z,91.32
2022-10-20T03:19:14.134Z,91.22
2022-10-20T03:20:14.113Z,91.22
2022-10-20T03:21:14.101Z,90.80
2022-10-20T03:22:14.095Z,91.42
2022-10-20T03:23:16.423Z,91.22
2022-10-20T03:24:15.078Z,91.42
2022-10-20T03:25:14.069Z,91.26
2022-10-20T03:26:14.059Z,91.46
2022-10-20T03:27:14.045Z,91.22
2022-10-20T03:28:14.048Z,91.42
2022-10-20T03:29:15.033Z,91.22
2022-10-20T03:30:14.022Z,90.84
2022-10-20T03:31:14.016Z,91.26
2022-10-20T03:32:14.004Z,91.16
2022-10-20T03:33:14.017Z,91.16
2022-10-20T03:34:13.988Z,90.91
2022-10-20T03:35:13.979Z,91.26
2022-10-20T03:36:13.973Z,90.95
2022-10-20T03:37:13.957Z,91.36
2022-10-20T03:38:13.968Z,91.16
2022-10-20T03:39:13.947Z,91.46
2022-10-20T03:40:13.938Z,91.36
2022-10-20T03:41:13.931Z,91.46
2022-10-20T03:42:13.928Z,91.36
2022-10-20T03:43:13.915Z,91.36
2022-10-20T03:44:13.920Z,91.56
2022-10-20T03:45:17.688Z,91.46
2022-10-20T03:46:13.899Z,91.36
2022-10-20T03:47:13.878Z,91.16
2022-10-20T03:48:13.879Z,91.36
2022-10-20T03:49:13.878Z,91.32
2022-10-20T03:50:13.855Z,91.26
2022-10-20T03:51:13.845Z,91.36
2022-10-20T03:52:13.836Z,91.26
2022-10-20T03:53:13.842Z,91.36
2022-10-20T03:54:13.836Z,91.36
2022-10-20T03:55:13.814Z,91.98
2022-10-20T03:56:13.799Z,91.56
2022-10-20T03:57:13.792Z,92.40
2022-10-20T03:58:13.785Z,92.19
2022-10-20T03:59:13.788Z,93.01
2022-10-20T04:00:13.771Z,92.91
2022-10-20T04:01:13.875Z,93.22
2022-10-20T04:02:13.744Z,93.63
2022-10-20T04:03:13.748Z,93.12
2022-10-20T04:04:13.742Z,92.91
2022-10-20T04:05:13.721Z,92.29
2022-10-20T04:06:13.715Z,92.08
2022-10-20T04:07:13.705Z,92.19
2022-10-20T04:09:13.768Z,92.14
2022-10-20T04:10:13.677Z,92.46
2022-10-20T04:11:13.672Z,92.04
2022-10-20T04:12:13.667Z,92.14
2022-10-20T04:13:13.655Z,92.04
2022-10-20T04:14:13.655Z,92.04
2022-10-20T04:15:13.636Z,93.22
2022-10-20T04:16:13.626Z,92.86
2022-10-20T04:17:13.642Z,93.07
2022-10-20T04:18:13.608Z,92.14
2022-10-20T04:19:13.609Z,92.35
2022-10-20T04:20:13.591Z,91.52
2022-10-20T04:21:13.590Z,91.67
2022-10-20T04:22:13.593Z,91.98
2022-10-20T04:23:13.562Z,92.19
2022-10-20T04:24:13.562Z,92.40
2022-10-20T04:25:13.546Z,92.25
2022-10-20T04:26:13.587Z,92.04
2022-10-20T04:27:13.542Z,91.73
2022-10-20T04:28:13.514Z,91.73
2022-10-20T04:29:13.523Z,91.63
2022-10-20T04:30:13.502Z,91.73
2022-10-20T04:31:13.491Z,91.83
2022-10-20T04:32:13.488Z,91.73
2022-10-20T04:33:13.477Z,91.73
2022-10-20T04:34:13.478Z,91.83
2022-10-20T04:35:13.459Z,91.73
2022-10-20T04:36:13.447Z,91.52
2022-10-20T04:37:13.440Z,91.52
2022-10-20T04:38:13.434Z,91.42
2022-10-20T04:39:13.432Z,91.32
2022-10-20T04:40:13.416Z,91.52
2022-10-20T04:41:13.404Z,91.32
2022-10-20T04:42:13.395Z,91.32
2022-10-20T04:43:13.384Z,91.42
2022-10-20T04:44:13.389Z,91.63
2022-10-20T04:45:13.374Z,91.52
2022-10-20T04:46:13.363Z,91.32
2022-10-20T04:47:13.355Z,91.52
2022-10-20T04:48:13.344Z,91.67
2022-10-20T04:49:13.348Z,91.63
2022-10-20T04:50:13.331Z,91.98
2022-10-20T04:51:13.314Z,91.67
2022-10-20T04:52:13.313Z,91.73
2022-10-20T04:53:13.303Z,91.73
2022-10-20T04:54:13.301Z,91.88
2022-10-20T04:55:13.280Z,91.73
2022-10-20T04:56:13.272Z,91.56
2022-10-20T04:57:13.261Z,91.11
2022-10-20T04:58:13.250Z,91.42
2022-10-20T04:59:13.808Z,91.88
2022-10-20T05:00:13.237Z,91.67
2022-10-20T05:01:13.251Z,91.77
2022-10-20T05:02:14.220Z,91.56
2022-10-20T05:03:13.231Z,91.67
2022-10-20T05:04:13.215Z,91.98
2022-10-20T05:05:13.193Z,91.22
2022-10-20T05:06:13.188Z,91.67
2022-10-20T05:07:13.176Z,91.56
2022-10-20T05:08:13.171Z,90.95
2022-10-20T05:09:13.211Z,91.01
2022-10-20T05:10:13.155Z,91.46
2022-10-20T05:11:39.052Z,91.46
2022-10-20T05:13:13.133Z,91.63
2022-10-20T05:14:13.125Z,91.32
2022-10-20T05:15:13.110Z,91.26
2022-10-20T05:16:13.100Z,91.26
2022-10-20T05:17:13.097Z,91.05
2022-10-20T05:18:13.083Z,91.16
2022-10-20T05:19:13.084Z,91.26
2022-10-20T05:20:13.073Z,91.16
2022-10-20T05:21:13.059Z,90.64
2022-10-20T05:22:13.035Z,90.53
2022-10-20T05:23:14.038Z,90.84
2022-10-20T05:24:16.741Z,90.64
2022-10-20T05:25:34.926Z,90.95
2022-10-20T05:26:15.015Z,90.74
2022-10-20T05:27:13.002Z,90.95
2022-10-20T05:28:12.991Z,90.64
2022-10-20T05:29:13.001Z,90.64
2022-10-20T05:30:12.985Z,90.74
2022-10-20T05:31:12.963Z,90.95
2022-10-20T05:32:12.957Z,90.74
2022-10-20T05:33:12.945Z,90.64
2022-10-20T05:34:12.963Z,91.09
2022-10-20T05:35:12.940Z,91.50
2022-10-20T05:36:12.932Z,91.61
2022-10-20T05:37:12.913Z,91.56
2022-10-20T05:38:12.900Z,91.50
2022-10-20T05:39:13.002Z,92.23
2022-10-20T05:40:12.880Z,91.67
2022-10-20T05:41:12.878Z,91.88
2022-10-20T05:42:12.873Z,92.13
2022-10-20T05:43:12.857Z,91.88
2022-10-20T05:44:12.865Z,91.92
2022-10-20T05:45:12.843Z,92.23
2022-10-20T05:46:12.833Z,92.95
2022-10-20T05:47:12.825Z,93.47
2022-10-20T05:48:12.816Z,92.95
2022-10-20T05:49:12.822Z,92.60
2022-10-20T05:50:12.803Z,92.19
2022-10-20T05:51:14.904Z,92.54
2022-10-20T05:52:12.778Z,92.33
2022-10-20T05:53:12.772Z,92.23
2022-10-20T05:54:12.786Z,92.85
2022-10-20T05:55:12.757Z,93.16
2022-10-20T05:56:12.748Z,93.05
2022-10-20T05:57:12.746Z,93.12
2022-10-20T05:58:12.730Z,93.32
2022-10-20T05:59:12.733Z,92.19
2022-10-20T06:00:12.709Z,91.98
2022-10-20T06:01:12.706Z,92.91
2022-10-20T06:02:12.692Z,92.91
2022-10-20T06:03:16.079Z,93.22
2022-10-20T06:04:12.683Z,92.80
2022-10-20T06:05:12.661Z,92.08
2022-10-20T06:06:12.657Z,92.25
2022-10-20T06:07:12.649Z,92.08
2022-10-20T06:08:12.639Z,91.83
2022-10-20T06:09:12.649Z,91.42
2022-10-20T06:10:12.621Z,91.42
2022-10-20T06:11:12.617Z,91.32
2022-10-20T06:12:12.612Z,92.04
2022-10-20T06:13:12.597Z,91.94
2022-10-20T06:14:12.599Z,93.12
2022-10-20T06:15:12.583Z,93.32
2022-10-20T06:16:12.572Z,92.86
2022-10-20T06:17:12.565Z,92.86
2022-10-20T06:18:12.555Z,93.38
2022-10-20T06:19:12.563Z,92.86
2022-10-20T06:20:12.534Z,92.55
2022-10-20T06:21:12.530Z,93.49
2022-10-20T06:22:12.525Z,92.86
2022-10-20T06:23:12.512Z,92.97
2022-10-20T06:24:12.520Z,93.07
2022-10-20T06:25:12.495Z,93.28
2022-10-20T06:26:12.485Z,92.93
2022-10-20T06:27:12.468Z,92.51
2022-10-20T06:28:13.469Z,91.79
2022-10-20T06:29:12.474Z,91.58
2022-10-20T06:30:12.453Z,91.54
2022-10-20T06:31:12.446Z,91.17
2022-10-20T06:33:12.426Z,91.24
2022-10-20T06:34:12.431Z,91.24
2022-10-20T06:35:12.408Z,91.54
2022-10-20T06:36:12.400Z,91.40
2022-10-20T06:37:12.390Z,91.19
2022-10-20T06:38:12.385Z,90.99
2022-10-20T06:39:12.378Z,91.30
2022-10-20T06:40:12.364Z,91.19
2022-10-20T06:41:12.361Z,90.94
2022-10-20T06:42:12.514Z,91.05
2022-10-20T06:43:12.335Z,91.05
2022-10-20T06:44:12.330Z,90.33
2022-10-20T06:45:14.449Z,90.49
2022-10-20T06:46:12.306Z,90.90
2022-10-20T06:47:12.303Z,89.94
2022-10-20T06:48:12.294Z,89.67
2022-10-20T06:49:12.287Z,89.52
2022-10-20T06:50:12.276Z,89.62
2022-10-20T06:51:12.271Z,88.70
2022-10-20T06:52:12.292Z,88.80
2022-10-20T06:53:12.243Z,88.59
2022-10-20T06:54:12.246Z,88.45
2022-10-20T06:55:12.234Z,88.49
2022-10-20T06:56:12.234Z,88.49
2022-10-20T06:57:12.226Z,88.56
2022-10-20T06:58:12.206Z,88.56
2022-10-20T06:59:12.203Z,88.96
2022-10-20T07:00:12.193Z,89.58
2022-10-20T07:01:12.176Z,89.28
2022-10-20T07:02:12.300Z,89.58
2022-10-20T07:03:12.175Z,89.48
2022-10-20T07:04:12.164Z,89.48
2022-10-20T07:05:12.145Z,89.38
2022-10-20T07:06:12.126Z,89.58
2022-10-20T07:07:13.126Z,89.17
2022-10-20T07:08:12.123Z,88.92
2022-10-20T07:09:12.193Z,89.13
2022-10-20T07:10:12.096Z,88.92
2022-10-20T07:11:12.095Z,89.13
2022-10-20T07:12:12.079Z,89.23
2022-10-20T07:13:13.077Z,89.23
2022-10-20T07:14:12.078Z,89.34
2022-10-20T07:15:12.058Z,89.40
2022-10-20T07:16:12.054Z,88.51
2022-10-20T07:17:12.039Z,89.09
2022-10-20T07:18:12.040Z,88.98
2022-10-20T07:19:12.084Z,88.78
2022-10-20T07:20:12.012Z,88.57
2022-10-20T07:21:12.006Z,88.37
2022-10-20T07:22:12.014Z,87.92
2022-10-20T07:23:11.985Z,88.33
2022-10-20T07:24:12.007Z,87.51
2022-10-20T07:25:11.968Z,86.68
2022-10-20T07:26:11.958Z,86.58
2022-10-20T07:27:11.945Z,85.76
2022-10-20T07:28:11.938Z,85.55
2022-10-20T07:29:11.937Z,84.80
2022-10-20T07:30:11.920Z,84.90
2022-10-20T07:31:11.911Z,84.80
2022-10-20T07:32:11.906Z,85.41
2022-10-20T07:33:11.894Z,85.62
2022-10-20T07:34:27.641Z,84.90
2022-10-20T07:35:13.878Z,84.69
2022-10-20T07:36:11.873Z,84.08
2022-10-20T07:37:11.862Z,84.49
2022-10-20T07:38:11.848Z,84.04
2022-10-20T07:39:11.851Z,84.14
2022-10-20T07:40:11.894Z,83.69
2022-10-20T07:41:11.831Z,84.10
2022-10-20T07:42:11.822Z,84.20
2022-10-20T07:43:11.824Z,84.61
2022-10-20T07:44:11.807Z,83.83
2022-10-20T07:45:11.792Z,84.34
2022-10-20T07:46:11.788Z,82.70
2022-10-20T07:47:11.776Z,82.97
2022-10-20T07:48:11.765Z,83.49
2022-10-20T07:49:42.390Z,83.73
2022-10-20T07:50:13.738Z,83.73
2022-10-20T07:52:11.731Z,84.10
2022-10-20T07:53:11.718Z,84.10
2022-10-20T07:54:11.726Z,84.20
2022-10-20T07:55:18.028Z,83.55
2022-10-20T07:56:13.686Z,82.77
2022-10-20T07:57:11.685Z,83.65
2022-10-20T07:58:11.667Z,83.34
2022-10-20T07:59:12.677Z,83.34
2022-10-20T08:00:11.659Z,83.61
2022-10-20T08:01:11.653Z,82.93
2022-10-20T08:02:11.713Z,81.81
2022-10-20T08:03:11.630Z,82.63
2022-10-20T08:04:11.632Z,83.45
2022-10-20T08:05:11.620Z,84.06
2022-10-20T08:06:11.607Z,83.51
2022-10-20T08:07:11.596Z,83.41
2022-10-20T08:08:11.585Z,82.69
2022-10-20T08:09:11.585Z,82.01
2022-10-20T08:10:11.566Z,82.12
2022-10-20T08:11:11.558Z,82.63
2022-10-20T08:12:11.548Z,83.04
2022-10-20T08:13:11.539Z,82.79
2022-10-20T08:14:11.542Z,82.59
2022-10-20T08:15:12.521Z,82.59
2022-10-20T08:16:15.529Z,82.76
2022-10-20T08:17:11.501Z,83.41
2022-10-20T08:18:12.863Z,82.86
2022-10-20T08:19:17.893Z,82.18
2022-10-20T08:20:14.397Z,81.36
2022-10-20T08:21:11.470Z,82.32
2022-10-20T08:22:11.455Z,83.20
2022-10-20T08:23:11.449Z,83.14
2022-10-20T08:24:11.477Z,83.51
2022-10-20T08:25:11.429Z,83.25
2022-10-20T08:26:11.563Z,83.10
2022-10-20T08:27:11.420Z,82.79
2022-10-20T08:28:11.402Z,83.00
2022-10-20T08:29:11.402Z,82.86
2022-10-20T08:30:26.141Z,81.29
2022-10-20T08:31:13.379Z,82.53
2022-10-20T08:32:11.363Z,83.14
2022-10-20T08:33:11.358Z,83.04
2022-10-20T08:34:11.352Z,83.65
2022-10-20T08:35:11.332Z,84.27
2022-10-20T08:36:11.326Z,83.45
2022-10-20T08:37:11.353Z,83.41
2022-10-20T08:38:11.309Z,83.34
2022-10-20T08:39:11.306Z,82.77
2022-10-20T08:40:11.287Z,84.00
2022-10-20T08:41:11.272Z,83.49
2022-10-20T08:42:11.269Z,85.19
2022-10-20T08:43:11.256Z,84.17
2022-10-20T08:44:11.279Z,83.69
2022-10-20T08:45:11.236Z,85.64
2022-10-20T08:46:11.297Z,85.44
2022-10-20T08:47:11.227Z,87.38
2022-10-20T08:48:11.217Z,86.98
2022-10-20T08:49:11.215Z,87.04
2022-10-20T08:50:11.186Z,84.68
2022-10-20T08:51:11.175Z,83.14
2022-10-20T08:52:11.162Z,84.12
2022-10-20T08:53:11.157Z,81.91
2022-10-20T08:54:11.148Z,83.65
2022-10-20T08:55:11.188Z,84.12
2022-10-20T08:56:12.136Z,84.58
2022-10-20T08:57:11.121Z,84.20
2022-10-20T08:58:11.136Z,85.50
2022-10-20T08:59:11.103Z,84.78
2022-10-20T09:00:11.124Z,85.30
2022-10-20T09:01:11.073Z,84.78
2022-10-20T09:02:12.096Z,84.47
2022-10-20T09:03:12.067Z,84.00
2022-10-20T09:04:11.063Z,84.37
2022-10-20T09:05:12.960Z,84.27
2022-10-20T09:06:12.039Z,84.37
2022-10-20T09:07:11.023Z,84.17
2022-10-20T09:08:11.020Z,84.27
2022-10-20T09:09:11.145Z,83.96
2022-10-20T09:10:11.004Z,83.96
2022-10-20T09:11:10.990Z,84.44
2022-10-20T09:12:10.980Z,84.44
2022-10-20T09:13:10.996Z,84.39
2022-10-20T09:14:10.952Z,83.58
2022-10-20T09:15:10.960Z,82.18
2022-10-20T09:16:18.272Z,83.98
2022-10-20T09:17:12.929Z,83.84
2022-10-20T09:18:10.915Z,83.47
2022-10-20T09:19:10.911Z,84.09
2022-10-20T09:20:10.932Z,82.90
2022-10-20T09:21:10.888Z,84.03
2022-10-20T09:22:10.887Z,84.95
2022-10-20T09:23:28.343Z,84.84
2022-10-20T09:24:12.863Z,83.51
2022-10-20T09:25:10.866Z,83.84
2022-10-20T09:26:19.637Z,83.33
2022-10-20T09:27:12.836Z,81.90
2022-10-20T09:28:10.824Z,82.57
2022-10-20T09:29:14.865Z,80.02
2022-10-20T09:30:11.833Z,81.04
2022-10-20T09:31:10.809Z,81.10
2022-10-20T09:32:40.839Z,80.35
2022-10-20T09:33:12.780Z,79.64
2022-10-20T09:34:10.787Z,81.07
2022-10-20T09:35:10.769Z,79.88
2022-10-20T09:36:10.751Z,79.20
2022-10-20T09:37:10.734Z,82.07
2022-10-20T09:38:10.728Z,80.25
2022-10-20T09:39:10.713Z,79.91
2022-10-20T09:40:10.721Z,79.74
2022-10-20T09:41:10.700Z,78.82
2022-10-20T09:42:10.692Z,79.23
2022-10-20T09:43:10.695Z,79.50
2022-10-20T09:44:10.670Z,80.69
2022-10-20T09:45:10.673Z,78.88
2022-10-20T09:46:10.673Z,76.70
2022-10-20T09:47:10.639Z,77.92
2022-10-20T09:48:10.633Z,76.90
2022-10-20T09:49:10.612Z,74.55
2022-10-20T09:50:10.620Z,72.45
2022-10-20T09:51:10.612Z,71.40
2022-10-20T09:52:10.588Z,70.89
2022-10-20T09:53:10.576Z,69.20
2022-10-20T09:54:10.571Z,71.40
2022-10-20T09:55:10.571Z,72.45
2022-10-20T09:56:10.540Z,72.82
2022-10-20T09:57:11.534Z,74.25
2022-10-20T09:58:12.798Z,76.09
2022-10-20T09:59:11.518Z,76.63
2022-10-20T10:00:32.248Z,77.31
2022-10-20T10:01:12.599Z,78.48
2022-10-20T10:02:10.490Z,78.92
2022-10-20T10:03:10.516Z,80.49
2022-10-20T10:04:11.135Z,80.56
2022-10-20T10:05:11.469Z,80.90
2022-10-20T10:06:10.450Z,81.01
2022-10-20T10:07:10.459Z,80.76
2022-10-20T10:08:10.432Z,80.97
2022-10-20T10:09:10.547Z,81.24
2022-10-20T10:10:10.421Z,81.60
2022-10-20T10:11:10.397Z,82.12
2022-10-20T10:12:10.389Z,81.10
2022-10-20T10:13:10.384Z,80.52
2022-10-20T10:14:10.377Z,80.28
2022-10-20T10:15:10.372Z,80.65
2022-10-20T10:16:10.352Z,80.24
2022-10-20T10:17:10.348Z,79.66
2022-10-20T10:18:10.360Z,79.25
2022-10-20T10:19:10.351Z,80.18
2022-10-20T10:20:10.319Z,79.57
2022-10-20T10:21:10.324Z,78.95
2022-10-20T10:22:10.296Z,79.77
2022-10-20T10:23:10.284Z,79.70
2022-10-20T10:24:10.289Z,80.48
2022-10-20T10:25:10.262Z,80.34
2022-10-20T10:26:10.255Z,79.43
2022-10-20T10:27:10.246Z,79.02
2022-10-20T10:28:10.236Z,79.43
2022-10-20T10:29:10.241Z,78.91
2022-10-20T10:30:10.209Z,80.58
2022-10-20T10:31:10.205Z,80.24
2022-10-20T10:32:10.199Z,78.81
2022-10-20T10:33:10.177Z,79.52
2022-10-20T10:34:11.187Z,80.55
2022-10-20T10:35:10.169Z,80.34
2022-10-20T10:36:10.158Z,79.73
2022-10-20T10:37:10.208Z,79.83
2022-10-20T10:38:10.143Z,79.02
2022-10-20T10:39:10.145Z,79.93
2022-10-20T10:40:10.119Z,79.63
2022-10-20T10:41:10.110Z,79.22
2022-10-20T10:42:10.102Z,79.18
2022-10-20T10:43:10.090Z,79.08
2022-10-20T10:44:10.083Z,79.18
2022-10-20T10:45:10.082Z,79.49
2022-10-20T10:46:10.062Z,79.55
2022-10-20T10:47:10.049Z,78.64
2022-10-20T10:48:10.039Z,79.04
2022-10-20T10:49:10.035Z,77.92
2022-10-20T10:50:10.037Z,78.74
2022-10-20T10:51:10.012Z,78.33
2022-10-20T10:52:10.012Z,78.09
2022-10-20T10:53:09.995Z,77.07
2022-10-20T10:54:11.841Z,77.82
2022-10-20T10:55:11.843Z,78.53
2022-10-20T10:56:10.977Z,78.02
2022-10-20T10:57:11.888Z,78.30
2022-10-20T10:58:10.038Z,78.39
2022-10-20T10:59:09.929Z,79.17
2022-10-20T11:00:09.934Z,79.48
2022-10-20T11:01:09.976Z,78.87
2022-10-20T11:02:09.900Z,77.03
2022-10-20T11:03:09.888Z,77.34
2022-10-20T11:04:09.877Z,78.22
2022-10-20T11:05:09.965Z,78.12
2022-10-20T11:06:09.855Z,78.02
2022-10-20T11:07:09.847Z,77.10
2022-10-20T11:08:09.836Z,76.59
2022-10-20T11:09:09.842Z,75.67
2022-10-20T11:10:09.817Z,76.93
2022-10-20T11:11:16.722Z,76.73
2022-10-20T11:12:09.800Z,77.55
2022-10-20T11:13:09.788Z,77.61
2022-10-20T11:14:09.856Z,78.22
2022-10-20T11:15:09.765Z,75.47
2022-10-20T11:16:10.761Z,76.73
2022-10-20T11:17:09.751Z,76.62
2022-10-20T11:18:09.742Z,77.51
2022-10-20T11:19:09.743Z,77.71
2022-10-20T11:20:09.719Z,76.49
2022-10-20T11:21:09.703Z,76.59
2022-10-20T11:22:11.879Z,75.16
2022-10-20T11:23:09.689Z,75.67
2022-10-20T11:24:09.692Z,76.96
2022-10-20T11:25:09.670Z,75.30
2022-10-20T11:26:09.665Z,75.02
2022-10-20T11:27:09.653Z,74.99
2022-10-20T11:28:09.642Z,75.91
2022-10-20T11:29:09.641Z,75.67
2022-10-20T11:30:09.618Z,75.33
2022-10-20T11:31:09.609Z,73.87
2022-10-20T11:32:09.608Z,73.06
2022-10-20T11:33:09.594Z,73.30
2022-10-20T11:34:09.592Z,74.55
2022-10-20T11:35:09.569Z,75.02
2022-10-20T11:36:09.563Z,73.26
2022-10-20T11:37:09.550Z,73.87
2022-10-20T11:38:09.537Z,73.36
2022-10-20T11:39:09.538Z,72.25
2022-10-20T11:40:09.518Z,72.41
2022-10-20T11:41:09.503Z,73.47
2022-10-20T11:42:09.497Z,75.20
2022-10-20T11:43:11.113Z,77.13
2022-10-20T11:44:09.486Z,76.48
2022-10-20T11:45:09.465Z,76.18
2022-10-20T11:46:09.454Z,74.99
2022-10-20T11:47:09.448Z,75.40
2022-10-20T11:48:09.436Z,75.64
2022-10-20T11:49:09.437Z,76.39
2022-10-20T11:50:09.423Z,77.26
2022-10-20T11:51:09.411Z,77.03
2022-10-20T11:52:09.391Z,76.38
2022-10-20T11:53:09.390Z,76.07
2022-10-20T11:54:09.387Z,74.96
2022-10-20T11:55:09.366Z,75.43
2022-10-20T11:56:09.350Z,75.06
2022-10-20T11:57:09.346Z,73.94
2022-10-20T11:58:09.334Z,75.06
2022-10-20T11:59:09.333Z,76.21
2022-10-20T12:00:09.328Z,77.20
2022-10-20T12:01:09.303Z,76.79
2022-10-20T12:02:09.395Z,76.38
2022-10-20T12:03:09.288Z,75.37
2022-10-20T12:04:09.285Z,74.89
2022-10-20T12:05:09.264Z,75.50
2022-10-20T12:06:10.264Z,77.06
2022-10-20T12:07:09.241Z,78.25
2022-10-20T12:08:28.865Z,77.70
2022-10-20T12:09:11.359Z,77.40
2022-10-20T12:10:09.210Z,76.89
2022-10-20T12:11:09.199Z,76.04
2022-10-20T12:12:09.189Z,75.94
2022-10-20T12:13:09.174Z,76.55
2022-10-20T12:14:09.185Z,75.73
2022-10-20T12:15:09.161Z,75.80
2022-10-20T12:16:09.148Z,76.21
2022-10-20T12:17:09.132Z,75.90
2022-10-20T12:18:09.125Z,75.40
2022-10-20T12:19:09.139Z,75.40
2022-10-20T12:20:09.111Z,75.09
2022-10-20T12:21:09.094Z,75.53
2022-10-20T12:22:09.087Z,75.40
2022-10-20T12:23:09.073Z,75.90
2022-10-20T12:24:09.067Z,76.10
2022-10-20T12:25:09.066Z,77.02
2022-10-20T12:26:09.054Z,76.75
2022-10-20T12:27:09.034Z,77.02
2022-10-20T12:28:09.020Z,78.28
2022-10-20T12:29:09.011Z,78.48
2022-10-20T12:30:09.021Z,78.89
2022-10-20T12:31:09.086Z,79.33
2022-10-20T12:32:08.982Z,78.82
2022-10-20T12:33:08.975Z,79.16
2022-10-20T12:34:08.956Z,80.02
2022-10-20T12:35:08.955Z,80.63
2022-10-20T12:36:08.959Z,81.85
2022-10-20T12:37:08.933Z,81.44
2022-10-20T12:38:08.913Z,82.66
2022-10-20T12:39:09.923Z,82.15
2022-10-20T12:40:08.993Z,81.74
2022-10-20T12:41:08.911Z,82.56
2022-10-20T12:42:08.882Z,83.37
2022-10-20T12:43:08.868Z,83.98
2022-10-20T12:44:08.884Z,83.98
2022-10-20T12:45:08.863Z,83.95
2022-10-20T12:46:08.858Z,82.93
2022-10-20T12:47:08.828Z,83.44
2022-10-20T12:48:08.815Z,83.54
2022-10-20T12:49:11.766Z,83.54
2022-10-20T12:50:08.839Z,83.74
2022-10-20T12:51:08.792Z,83.84
2022-10-20T12:52:08.777Z,83.60
2022-10-20T12:53:08.768Z,83.84
2022-10-20T12:54:08.756Z,82.87
2022-10-20T12:55:08.757Z,81.07
2022-10-20T12:56:08.737Z,81.11
2022-10-20T12:57:08.724Z,82.33
2022-10-20T12:58:08.719Z,81.79
2022-10-20T12:59:08.698Z,82.90